Time;durP1;ratioP1;P1;durP2;ratioP2;P2;SDS_P1;SDS_P2;PMS_P1;PMS_P2;Temp;Humidity;BMP_temperature;BMP_pressure;BME280_temperature;BME280_humidity;BME280_pressure;Samples;Min_cycle;Max_cycle;Signal;HPM_P1;HPM_P2
2023/07/25 00:00:54;;;;;;;;;2.00;1.50;;;;;25.44;100.00;99948.53;2097735;28;46159;-62
2023/07/25 00:01:55;;;;;;;;;2.33;2.33;;;;;25.44;100.00;99951.25;2099330;28;46424;-62
2023/07/25 00:02:56;;;;;;;;;1.33;1.33;;;;;25.44;100.00;99950.41;2096534;28;46504;-63
2023/07/25 00:03:56;;;;;;;;;2.33;2.00;;;;;25.45;100.00;99941.25;2095944;28;46785;-60
2023/07/25 00:04:56;;;;;;;;;0.67;0.67;;;;;25.45;100.00;99939.41;2095446;28;46329;-61
2023/07/25 00:05:57;;;;;;;;;2.75;2.75;;;;;25.48;100.00;99940.94;2095525;28;46740;-61
2023/07/25 00:06:57;;;;;;;;;3.00;3.00;;;;;25.46;100.00;99938.38;2095747;28;46396;-61
2023/07/25 00:07:58;;;;;;;;;2.00;2.00;;;;;25.46;100.00;99937.53;2095480;28;46704;-60
2023/07/25 00:08:58;;;;;;;;;1.67;1.67;;;;;25.44;100.00;99936.81;2095692;28;46485;-58
2023/07/25 00:09:58;;;;;;;;;1.00;1.00;;;;;25.43;100.00;99941.41;2095925;28;47096;-61
2023/07/25 00:11:00;;;;;;;;;5.25;5.25;;;;;25.41;100.00;99943.41;2096346;28;46591;-59
2023/07/25 00:12:00;;;;;;;;;46.20;38.20;;;;;25.39;100.00;99944.53;2095626;28;46711;-61
2023/07/25 00:13:00;;;;;;;;;44.00;35.75;;;;;25.37;100.00;99944.69;2096237;28;46343;-61
2023/07/25 00:14:01;;;;;;;;;33.25;31.00;;;;;25.35;100.00;99943.13;2097394;28;46532;-60
2023/07/25 00:15:02;;;;;;;;;59.50;47.25;;;;;25.34;100.00;99944.13;2097177;28;46549;-60
2023/07/25 00:16:03;;;;;;;;;61.00;49.00;;;;;25.34;100.00;99942.28;2097043;28;46576;-62
2023/07/25 00:17:03;;;;;;;;;42.00;35.75;;;;;25.33;100.00;99937.00;2097164;28;46233;-62
2023/07/25 00:18:04;;;;;;;;;59.00;47.75;;;;;25.31;100.00;99942.56;2094093;28;46551;-60
2023/07/25 00:19:04;;;;;;;;;61.00;47.50;;;;;25.27;100.00;99938.41;2096466;28;46620;-61
2023/07/25 00:20:05;;;;;;;;;56.00;46.00;;;;;25.27;100.00;99937.56;2097201;28;46200;-62
2023/07/25 00:21:06;;;;;;;;;56.40;45.00;;;;;25.25;100.00;99935.00;2096417;28;46478;-60
2023/07/25 00:22:06;;;;;;;;;54.75;44.00;;;;;25.24;100.00;99936.00;2099167;28;46255;-61
2023/07/25 00:23:07;;;;;;;;;45.25;38.00;;;;;25.21;100.00;99931.72;2104905;28;46444;-61
2023/07/25 00:24:07;;;;;;;;;35.25;31.50;;;;;25.20;100.00;99926.44;2099823;28;46248;-61
2023/07/25 00:25:08;;;;;;;;;24.75;24.75;;;;;25.20;100.00;99926.44;2097244;28;46606;-61
2023/07/25 00:26:08;;;;;;;;;23.40;23.40;;;;;25.17;100.00;99929.47;2096676;28;46497;-62
2023/07/25 00:27:09;;;;;;;;;16.75;15.50;;;;;25.16;100.00;99928.59;2098875;28;46208;-61
2023/07/25 00:28:09;;;;;;;;;14.25;13.50;;;;;25.13;100.00;99937.03;2096891;28;46389;-60
2023/07/25 00:29:09;;;;;;;;;15.25;14.75;;;;;25.12;100.00;99935.31;2097397;28;46838;-60
2023/07/25 00:30:10;;;;;;;;;13.50;12.75;;;;;25.42;100.00;99936.97;2099905;28;46553;-59
2023/07/25 00:31:10;;;;;;;;;12.50;10.25;;;;;25.51;100.00;99938.78;2097218;28;46705;-59
2023/07/25 00:32:10;;;;;;;;;5.67;5.67;;;;;25.52;100.00;99940.50;2099547;28;46443;-61
2023/07/25 00:33:11;;;;;;;;;9.75;7.25;;;;;25.52;100.00;99940.50;2098006;28;46785;-60
2023/07/25 00:34:11;;;;;;;;;10.50;7.00;;;;;25.53;100.00;99942.22;2099134;27;46537;-61
2023/07/25 00:35:11;;;;;;;;;7.75;7.00;;;;;25.55;100.00;99939.38;2097517;28;46656;-59
2023/07/25 00:36:12;;;;;;;;;7.25;4.50;;;;;25.51;100.00;99933.34;2097062;28;46651;-59
2023/07/25 00:37:12;;;;;;;;;6.00;6.00;;;;;25.52;100.00;99929.63;2104617;28;46707;-61
2023/07/25 00:38:12;;;;;;;;;3.33;3.00;;;;;25.33;100.00;99932.41;2100340;27;46652;-59
2023/07/25 00:39:13;;;;;;;;;2.33;2.33;;;;;25.20;100.00;99924.59;2097200;27;46632;-55
2023/07/25 00:40:13;;;;;;;;;3.33;3.33;;;;;25.17;100.00;99937.59;2098799;28;46386;-60
2023/07/25 00:41:13;;;;;;;;;3.00;3.00;;;;;25.14;100.00;99933.28;2097134;28;46819;-61
2023/07/25 00:42:14;;;;;;;;;3.67;3.00;;;;;25.13;100.00;99939.72;2098800;27;46052;-61
2023/07/25 00:43:14;;;;;;;;;3.67;2.33;;;;;25.14;100.00;99935.16;2098206;28;45977;-61
2023/07/25 00:44:14;;;;;;;;;2.67;2.67;;;;;25.12;100.00;99934.44;2096757;28;46499;-60
2023/07/25 00:45:15;;;;;;;;;5.00;3.67;;;;;25.11;100.00;99930.88;2098989;28;46591;-63
2023/07/25 00:46:18;;;;;;;;;2.00;2.00;;;;;25.13;100.00;99928.00;2091703;28;46112;-61
2023/07/25 00:47:22;;;;;;;;;5.00;2.50;;;;;25.13;100.00;99920.72;2097216;28;46229;-59
2023/07/25 00:48:22;;;;;;;;;1.00;1.00;;;;;25.16;100.00;99919.59;2099057;28;46772;-61
2023/07/25 00:49:22;;;;;;;;;2.33;2.33;;;;;25.18;100.00;99915.72;2097029;28;46536;-60
2023/07/25 00:50:23;;;;;;;;;3.67;3.67;;;;;25.15;100.00;99921.44;2097650;28;46600;-60
2023/07/25 00:51:23;;;;;;;;;2.67;2.67;;;;;25.13;100.00;99914.44;2102426;28;45809;-57
2023/07/25 00:52:24;;;;;;;;;3.33;3.33;;;;;25.09;100.00;99913.03;2095694;28;46986;-60
2023/07/25 00:53:26;;;;;;;;;2.00;2.00;;;;;25.07;100.00;99913.19;2099099;28;46547;-60
2023/07/25 00:54:26;;;;;;;;;2.00;2.00;;;;;25.06;100.00;99913.31;2093050;28;46493;-60
2023/07/25 00:55:27;;;;;;;;;4.00;1.33;;;;;25.07;100.00;99912.31;2097428;28;46109;-60
2023/07/25 00:56:27;;;;;;;;;3.00;3.00;;;;;25.06;100.00;99914.19;2099362;28;46116;-60
2023/07/25 00:57:28;;;;;;;;;2.33;2.33;;;;;25.06;100.00;99905.19;2098446;28;46628;-59
2023/07/25 00:58:29;;;;;;;;;4.33;2.33;;;;;25.06;100.00;99911.47;2096687;28;46293;-59
2023/07/25 00:59:29;;;;;;;;;2.00;2.00;;;;;25.06;100.00;99907.91;2098333;28;46235;-60
2023/07/25 01:00:29;;;;;;;;;2.67;2.67;;;;;25.06;100.00;99899.75;2096660;28;46174;-60
2023/07/25 01:01:30;;;;;;;;;2.67;2.67;;;;;25.07;100.00;99904.19;2098599;28;45937;-60
2023/07/25 01:02:30;;;;;;;;;2.67;2.67;;;;;25.06;100.00;99903.31;2098458;28;46804;-60
2023/07/25 01:03:33;;;;;;;;;3.00;2.00;;;;;25.06;100.00;99910.63;2105273;27;45752;-60
2023/07/25 01:04:36;;;;;;;;;2.50;2.50;;;;;25.04;100.00;99904.47;2102656;28;46341;-60
2023/07/25 01:05:44;;;;;;;;;0.00;0.00;;;;;25.03;100.00;99900.91;2105555;27;46454;-60
2023/07/25 01:06:44;;;;;;;;;2.25;2.25;;;;;25.03;100.00;99906.34;2088307;28;46706;-58
2023/07/25 01:07:45;;;;;;;;;3.00;3.00;;;;;25.04;100.00;99907.19;2098853;28;46418;-58
2023/07/25 01:08:49;;;;;;;;;2.00;2.00;;;;;25.05;100.00;99904.34;2104229;28;46520;-60
2023/07/25 01:09:49;;;;;;;;;2.75;2.50;;;;;25.04;100.00;99907.19;2097645;27;46582;-60
2023/07/25 01:10:49;;;;;;;;;3.00;3.00;;;;;25.03;100.00;99914.47;2098450;28;45120;-60
2023/07/25 01:11:50;;;;;;;;;3.33;2.00;;;;;25.00;100.00;99905.72;2097052;28;46195;-60
2023/07/25 01:12:50;;;;;;;;;2.00;2.00;;;;;25.01;100.00;99902.88;2097913;28;46436;-60
2023/07/25 01:13:51;;;;;;;;;2.67;2.67;;;;;25.01;100.00;99905.59;2096597;28;46703;-60
2023/07/25 01:14:51;;;;;;;;;1.00;1.00;;;;;25.01;100.00;99908.31;2096743;28;46347;-60
2023/07/25 01:15:53;;;;;;;;;1.67;1.67;;;;;25.03;100.00;99908.16;2098291;28;46606;-58
2023/07/25 01:16:53;;;;;;;;;2.75;2.75;;;;;25.05;100.00;99903.47;2097958;28;46739;-56
2023/07/25 01:17:54;;;;;;;;;2.00;2.00;;;;;25.06;100.00;99903.31;2098418;27;46530;-57
2023/07/25 01:18:55;;;;;;;;;4.00;1.33;;;;;25.06;100.00;99906.03;2097193;28;46040;-60
2023/07/25 01:19:56;;;;;;;;;3.25;3.00;;;;;25.07;100.00;99907.75;2095747;28;46423;-59
2023/07/25 01:20:57;;;;;;;;;1.00;1.00;;;;;25.06;100.00;99903.31;2095430;28;46618;-61
2023/07/25 01:21:58;;;;;;;;;3.00;3.00;;;;;25.06;100.00;99910.63;2093057;28;46835;-61
2023/07/25 01:23:01;;;;;;;;;1.00;1.00;;;;;25.06;100.00;99906.03;2095704;28;46443;-59
2023/07/25 01:24:02;;;;;;;;;4.00;4.00;;;;;25.05;100.00;99904.34;2096516;28;46443;-59
2023/07/25 01:25:02;;;;;;;;;2.33;2.33;;;;;25.02;100.00;99904.59;2098770;28;46739;-60
2023/07/25 01:26:03;;;;;;;;;3.67;3.00;;;;;25.02;100.00;99901.88;2097478;28;46557;-61
2023/07/25 01:27:03;;;;;;;;;2.00;2.00;;;;;25.03;100.00;99900.91;2104611;28;46803;-60
2023/07/25 01:28:04;;;;;;;;;4.00;3.00;;;;;25.01;100.00;99902.88;2097703;28;46576;-60
2023/07/25 01:29:04;;;;;;;;;3.00;3.00;;;;;24.99;100.00;99895.88;2095645;27;45447;-60
2023/07/25 01:30:06;;;;;;;;;4.00;3.33;;;;;25.00;100.00;99900.28;2102530;27;46415;-61
2023/07/25 01:31:06;;;;;;;;;3.00;2.75;;;;;24.98;100.00;99897.72;2096791;28;46380;-61
2023/07/25 01:32:07;;;;;;;;;3.33;3.33;;;;;24.97;100.00;99898.72;2097947;28;46280;-62
2023/07/25 01:33:07;;;;;;;;;3.00;2.50;;;;;24.97;100.00;99901.44;2097563;28;46148;-61
2023/07/25 01:34:07;;;;;;;;;3.00;3.00;;;;;24.93;100.00;99895.44;2096818;28;45480;-61
2023/07/25 01:35:08;;;;;;;;;2.67;2.67;;;;;24.92;100.00;99899.19;2097827;28;45926;-60
2023/07/25 01:36:08;;;;;;;;;2.00;2.00;;;;;24.93;100.00;99894.59;2096608;28;46185;-61
2023/07/25 01:37:08;;;;;;;;;1.33;1.33;;;;;24.92;100.00;99892.88;2104362;28;45612;-61
2023/07/25 01:38:09;;;;;;;;;3.67;2.00;;;;;24.92;100.00;99890.19;2097506;27;46574;-61
2023/07/25 01:39:09;;;;;;;;;3.00;3.00;;;;;24.93;100.00;99894.59;2096880;28;46311;-61
2023/07/25 01:40:10;;;;;;;;;0.67;0.67;;;;;24.92;100.00;99891.03;2096135;28;46520;-62
2023/07/25 01:41:10;;;;;;;;;1.75;1.75;;;;;24.91;100.00;99891.19;2078437;28;46516;-61
2023/07/25 01:42:11;;;;;;;;;2.33;2.33;;;;;24.92;100.00;99887.47;2071052;28;46179;-61
2023/07/25 01:43:11;;;;;;;;;1.33;1.33;;;;;24.92;100.00;99877.47;2070980;28;46268;-60
2023/07/25 01:44:12;;;;;;;;;4.00;4.00;;;;;24.92;100.00;99880.16;2062702;28;46199;-61
2023/07/25 01:45:12;;;;;;;;;3.00;3.00;;;;;24.91;100.00;99878.47;2069443;28;46425;-61
2023/07/25 01:46:13;;;;;;;;;4.00;4.00;;;;;24.90;100.00;99874.03;2070975;28;46249;-61
2023/07/25 01:47:13;;;;;;;;;1.67;1.67;;;;;24.92;100.00;99876.59;2077690;28;46698;-61
2023/07/25 01:48:13;;;;;;;;;5.33;3.00;;;;;24.92;100.00;99871.19;2079629;28;46179;-61
2023/07/25 01:49:14;;;;;;;;;1.00;1.00;;;;;24.93;100.00;99875.59;2078924;28;46602;-60
2023/07/25 01:50:14;;;;;;;;;3.33;3.33;;;;;24.91;100.00;99873.03;2079251;28;46499;-61
2023/07/25 01:51:14;;;;;;;;;1.67;1.67;;;;;24.89;100.00;99871.44;2079117;28;46280;-61
2023/07/25 01:52:14;;;;;;;;;2.67;2.67;;;;;24.87;100.00;99882.44;2072172;28;47228;-59
2023/07/25 01:53:15;;;;;;;;;2.00;2.00;;;;;24.88;100.00;99883.31;2077658;28;46636;-59
2023/07/25 01:54:18;;;;;;;;;2.00;2.00;;;;;24.88;100.00;99889.59;2079215;28;46786;-58
2023/07/25 01:55:19;;;;;;;;;2.00;2.00;;;;;24.88;100.00;99891.44;2079219;28;46876;-58
2023/07/25 01:56:20;;;;;;;;;3.00;1.33;;;;;24.91;100.00;99896.59;2078740;28;46314;-59
2023/07/25 01:57:21;;;;;;;;;2.25;2.25;;;;;24.92;100.00;99890.19;2078863;28;46376;-59
2023/07/25 01:58:22;;;;;;;;;2.00;2.00;;;;;24.91;100.00;99894.75;2078850;28;46578;-59
2023/07/25 01:59:22;;;;;;;;;3.00;3.00;;;;;24.93;100.00;99891.88;2075135;28;46849;-58
2023/07/25 02:00:22;;;;;;;;;2.00;2.00;;;;;24.94;100.00;99889.03;2071083;28;46595;-59
2023/07/25 02:01:23;;;;;;;;;2.33;1.67;;;;;24.94;100.00;99890.88;2078018;28;46650;-57
2023/07/25 02:02:23;;;;;;;;;2.00;2.00;;;;;24.97;100.00;99890.59;2078427;28;45184;-59
2023/07/25 02:03:26;;;;;;;;;3.00;3.00;;;;;24.99;100.00;99890.44;2078779;28;46147;-60
2023/07/25 02:04:26;;;;;;;;;2.50;1.00;;;;;24.98;100.00;99883.28;2077155;28;46315;-60
2023/07/25 02:05:27;;;;;;;;;2.00;2.00;;;;;24.99;100.00;99885.84;2079034;28;46224;-57
2023/07/25 02:06:27;;;;;;;;;2.00;2.00;;;;;24.98;100.00;99889.56;2079113;28;46456;-60
2023/07/25 02:07:27;;;;;;;;;2.67;1.67;;;;;25.00;100.00;99884.00;2078865;28;46743;-60
2023/07/25 02:08:28;;;;;;;;;2.67;2.67;;;;;25.00;100.00;99873.13;2071339;28;46227;-59
2023/07/25 02:09:28;;;;;;;;;3.00;3.00;;;;;25.01;100.00;99881.16;2070459;28;46532;-60
2023/07/25 02:10:29;;;;;;;;;3.67;3.67;;;;;25.29;100.00;99881.28;2079078;28;46365;-60
2023/07/25 02:11:30;;;;;;;;;5.75;5.00;;;;;25.31;100.00;99888.25;2078879;28;45965;-57
2023/07/25 02:12:30;;;;;;;;;4.33;3.67;;;;;25.07;100.00;99879.75;2078955;28;46832;-59
2023/07/25 02:13:32;;;;;;;;;2.75;2.75;;;;;25.00;100.00;99879.44;2079041;28;46783;-60
2023/07/25 02:14:32;;;;;;;;;3.00;2.00;;;;;24.96;100.00;99883.44;2079378;28;46456;-59
2023/07/25 02:15:33;;;;;;;;;3.00;3.00;;;;;24.94;100.00;99888.16;2070592;28;46568;-59
2023/07/25 02:16:36;;;;;;;;;3.67;3.67;;;;;24.87;100.00;99879.72;2071046;28;47058;-59
2023/07/25 02:17:36;;;;;;;;;3.50;3.50;;;;;24.88;100.00;99881.44;2078746;28;46453;-59
2023/07/25 02:18:37;;;;;;;;;4.67;4.00;;;;;24.92;100.00;99882.88;2079137;28;46360;-60
2023/07/25 02:19:38;;;;;;;;;3.00;3.00;;;;;24.91;100.00;99883.88;2092787;28;46389;-59
2023/07/25 02:20:38;;;;;;;;;4.00;4.00;;;;;24.91;100.00;99881.19;2091496;28;46383;-59
2023/07/25 02:21:38;;;;;;;;;4.00;4.00;;;;;24.91;100.00;99881.19;2094359;28;46233;-59
2023/07/25 02:22:39;;;;;;;;;5.00;3.75;;;;;24.93;100.00;99878.31;2097429;28;46835;-58
2023/07/25 02:23:39;;;;;;;;;6.00;6.00;;;;;24.96;100.00;99880.72;2097676;27;46584;-60
2023/07/25 02:24:39;;;;;;;;;4.50;4.25;;;;;24.95;100.00;99871.72;2100062;28;46584;-61
2023/07/25 02:25:39;;;;;;;;;4.67;3.00;;;;;24.95;100.00;99873.59;2104675;27;46255;-62
2023/07/25 02:26:40;;;;;;;;;4.00;4.00;;;;;24.94;100.00;99880.88;2099260;27;46722;-61
2023/07/25 02:27:40;;;;;;;;;7.00;5.33;;;;;24.98;100.00;99880.59;2097713;28;46478;-62
2023/07/25 02:28:41;;;;;;;;;4.33;4.33;;;;;24.97;100.00;99870.72;2096596;28;46711;-61
2023/07/25 02:29:41;;;;;;;;;4.00;4.00;;;;;24.97;100.00;99871.59;2087777;28;46254;-62
2023/07/25 02:30:41;;;;;;;;;6.33;4.00;;;;;24.97;100.00;99870.72;2087319;28;46650;-63
2023/07/25 02:31:41;;;;;;;;;5.00;5.00;;;;;24.96;100.00;99869.88;2097690;28;47282;-61
2023/07/25 02:32:42;;;;;;;;;5.00;4.00;;;;;24.93;100.00;99864.75;2097436;28;46584;-59
2023/07/25 02:33:42;;;;;;;;;1.25;1.25;;;;;24.92;100.00;99863.03;2096354;28;46338;-62
2023/07/25 02:34:42;;;;;;;;;5.33;4.33;;;;;24.92;100.00;99863.03;2102221;28;46278;-62
2023/07/25 02:35:43;;;;;;;;;3.25;2.25;;;;;24.91;100.00;99862.19;2097563;28;46232;-62
2023/07/25 02:36:43;;;;;;;;;5.00;4.00;;;;;24.91;100.00;99859.47;2095823;28;46289;-62
2023/07/25 02:37:44;;;;;;;;;3.00;1.67;;;;;25.08;100.00;99863.31;2100155;28;46290;-62
2023/07/25 02:38:44;;;;;;;;;4.25;3.25;;;;;25.04;100.00;99852.91;2096549;28;46511;-62
2023/07/25 02:39:44;;;;;;;;;3.00;3.00;;;;;24.96;100.00;99853.59;2097449;28;46623;-61
2023/07/25 02:40:44;;;;;;;;;6.00;4.67;;;;;24.94;100.00;99852.88;2098703;28;46666;-62
2023/07/25 02:41:45;;;;;;;;;2.00;2.00;;;;;24.93;100.00;99857.47;2104450;28;46455;-62
2023/07/25 02:42:45;;;;;;;;;3.67;1.67;;;;;24.93;100.00;99856.59;2098388;28;46121;-62
2023/07/25 02:43:46;;;;;;;;;4.00;4.00;;;;;24.91;100.00;99853.19;2097244;28;46610;-61
2023/07/25 02:44:46;;;;;;;;;2.25;2.25;;;;;24.89;100.00;99858.72;2096373;28;46762;-62
2023/07/25 02:45:46;;;;;;;;;3.00;3.00;;;;;24.90;100.00;99856.88;2097707;28;46531;-60
2023/07/25 02:46:47;;;;;;;;;4.00;3.00;;;;;24.91;100.00;99855.91;2096094;28;46840;-62
2023/07/25 02:47:47;;;;;;;;;3.50;2.75;;;;;24.85;100.00;99857.31;2097556;28;46182;-62
2023/07/25 02:48:47;;;;;;;;;2.75;2.75;;;;;24.87;100.00;99857.16;2097297;28;46385;-62
2023/07/25 02:49:48;;;;;;;;;4.75;4.75;;;;;24.93;100.00;99853.88;2096215;28;46785;-62
2023/07/25 02:50:48;;;;;;;;;6.00;5.00;;;;;24.96;100.00;99853.59;2097319;28;46419;-62
2023/07/25 02:51:48;;;;;;;;;3.33;3.33;;;;;24.98;100.00;99862.44;2097199;28;46189;-62
2023/07/25 02:52:49;;;;;;;;;5.25;4.25;;;;;24.99;100.00;99853.28;2096454;27;46522;-62
2023/07/25 02:53:49;;;;;;;;;3.67;3.67;;;;;24.95;100.00;99851.88;2097118;28;46401;-61
2023/07/25 02:54:49;;;;;;;;;4.67;4.67;;;;;24.99;100.00;99856.00;2102785;28;45988;-61
2023/07/25 02:55:50;;;;;;;;;4.75;4.75;;;;;24.98;100.00;99850.72;2104514;27;46169;-61
2023/07/25 02:56:51;;;;;;;;;3.75;3.75;;;;;24.96;100.00;99850.88;2104278;27;46351;-62
2023/07/25 02:57:51;;;;;;;;;4.67;4.33;;;;;24.96;100.00;99853.59;2104873;27;46489;-62
2023/07/25 02:58:51;;;;;;;;;4.33;4.00;;;;;24.95;100.00;99844.59;2105297;27;46746;-62
2023/07/25 02:59:52;;;;;;;;;4.67;3.67;;;;;24.94;100.00;99844.75;2105115;27;46291;-61
2023/07/25 03:00:52;;;;;;;;;4.00;3.00;;;;;24.95;100.00;99846.44;2104643;27;46365;-61
2023/07/25 03:01:52;;;;;;;;;3.25;3.25;;;;;24.95;100.00;99850.00;2104582;28;46075;-61
2023/07/25 03:02:53;;;;;;;;;2.33;2.33;;;;;24.97;100.00;99851.72;2104354;28;46479;-61
2023/07/25 03:03:53;;;;;;;;;3.00;3.00;;;;;25.00;100.00;99851.44;2101236;27;46783;-60
2023/07/25 03:04:54;;;;;;;;;3.33;3.33;;;;;25.00;100.00;99841.41;2097077;28;46892;-57
2023/07/25 03:05:54;;;;;;;;;3.00;3.00;;;;;24.98;100.00;99848.84;2096327;28;46561;-61
2023/07/25 03:06:55;;;;;;;;;3.00;3.00;;;;;24.98;100.00;99848.84;2097043;28;46640;-60
2023/07/25 03:07:57;;;;;;;;;2.33;2.33;;;;;24.98;100.00;99846.16;2096232;28;46598;-60
2023/07/25 03:08:57;;;;;;;;;3.00;3.00;;;;;24.94;100.00;99852.88;2104222;28;46850;-61
2023/07/25 03:09:57;;;;;;;;;3.00;3.00;;;;;24.94;100.00;99853.72;2102919;27;46640;-61
2023/07/25 03:10:57;;;;;;;;;6.25;5.00;;;;;24.93;100.00;99857.47;2103253;27;46579;-61
2023/07/25 03:11:58;;;;;;;;;2.25;2.25;;;;;24.92;100.00;99849.47;2096090;28;46593;-61
2023/07/25 03:12:58;;;;;;;;;2.00;2.00;;;;;24.92;100.00;99853.03;2096650;28;46716;-61
2023/07/25 03:13:58;;;;;;;;;4.67;4.67;;;;;24.93;100.00;99862.88;2096137;28;46564;-61
2023/07/25 03:14:59;;;;;;;;;3.67;2.67;;;;;24.91;100.00;99850.47;2096924;28;46485;-61
2023/07/25 03:15:59;;;;;;;;;4.00;4.00;;;;;24.89;100.00;99855.16;2096203;28;47092;-61
2023/07/25 03:17:00;;;;;;;;;2.00;2.00;;;;;24.88;100.00;99853.44;2104965;28;45888;-60
2023/07/25 03:18:00;;;;;;;;;4.00;2.50;;;;;24.91;100.00;99850.47;2105724;27;46556;-61
2023/07/25 03:19:00;;;;;;;;;5.00;4.67;;;;;24.91;100.00;99861.31;2106205;27;46623;-61
2023/07/25 03:20:01;;;;;;;;;4.00;4.00;;;;;24.92;100.00;99866.59;2105637;28;46285;-61
2023/07/25 03:21:01;;;;;;;;;4.00;4.00;;;;;24.86;100.00;99860.88;2104390;28;46286;-61
2023/07/25 03:22:01;;;;;;;;;3.00;3.00;;;;;24.83;100.00;99859.31;2097477;28;46297;-62
2023/07/25 03:23:02;;;;;;;;;5.50;4.50;;;;;24.82;100.00;99863.03;2100016;28;46257;-61
2023/07/25 03:24:02;;;;;;;;;3.50;3.50;;;;;24.81;100.00;99868.63;2097480;28;46983;-61
2023/07/25 03:25:02;;;;;;;;;4.00;3.00;;;;;24.77;100.00;99865.31;2100353;28;45831;-60
2023/07/25 03:26:03;;;;;;;;;3.75;3.75;;;;;24.76;100.00;99870.88;2096850;28;46547;-62
2023/07/25 03:27:04;;;;;;;;;3.00;3.00;;;;;24.72;100.00;99864.91;2097652;28;46950;-62
2023/07/25 03:28:04;;;;;;;;;3.00;3.00;;;;;24.71;100.00;99860.47;2097292;28;46255;-61
2023/07/25 03:29:05;;;;;;;;;3.00;3.00;;;;;24.73;100.00;99863.91;2097752;28;46581;-61
2023/07/25 03:30:06;;;;;;;;;2.50;2.50;;;;;24.76;100.00;99862.75;2097178;28;46365;-61
2023/07/25 03:31:06;;;;;;;;;4.40;4.40;;;;;24.70;100.00;99864.19;2090055;28;47401;-60
2023/07/25 03:32:07;;;;;;;;;4.00;4.00;;;;;24.69;100.00;99867.06;2096959;28;45374;-61
2023/07/25 03:33:07;;;;;;;;;4.25;4.25;;;;;24.65;100.00;99859.22;2103189;28;46599;-61
2023/07/25 03:34:08;;;;;;;;;3.75;3.75;;;;;24.70;100.00;99864.19;2105539;27;46211;-60
2023/07/25 03:35:08;;;;;;;;;4.75;4.75;;;;;24.70;100.00;99864.19;2097252;28;46600;-60
2023/07/25 03:36:08;;;;;;;;;2.00;2.00;;;;;24.67;100.00;99859.06;2098560;28;46499;-57
2023/07/25 03:37:09;;;;;;;;;5.75;5.75;;;;;24.94;100.00;99866.44;2087874;28;47170;-59
2023/07/25 03:38:09;;;;;;;;;3.75;3.25;;;;;25.01;100.00;99864.03;2095927;28;46914;-59
2023/07/25 03:39:09;;;;;;;;;4.00;4.00;;;;;25.07;100.00;99863.47;2096286;28;46474;-59
2023/07/25 03:40:10;;;;;;;;;4.00;4.00;;;;;25.05;100.00;99860.91;2096401;28;47003;-57
2023/07/25 03:41:11;;;;;;;;;6.75;5.50;;;;;25.10;100.00;99865.88;2095408;28;45768;-60
2023/07/25 03:42:11;;;;;;;;;3.00;3.00;;;;;25.09;100.00;99869.59;2093295;28;46656;-60
2023/07/25 03:43:12;;;;;;;;;2.25;2.25;;;;;25.06;100.00;99872.59;2087581;28;46403;-60
2023/07/25 03:44:17;;;;;;;;;4.40;4.40;;;;;24.77;100.00;99868.03;2088205;28;47169;-60
2023/07/25 03:45:17;;;;;;;;;4.20;4.20;;;;;24.71;100.00;99870.47;2088062;28;46914;-59
2023/07/25 03:46:18;;;;;;;;;4.00;4.00;;;;;24.70;100.00;99863.34;2087901;28;46374;-59
2023/07/25 03:47:18;;;;;;;;;3.75;3.00;;;;;24.72;100.00;99866.75;2088264;28;46329;-60
2023/07/25 03:48:18;;;;;;;;;3.00;3.00;;;;;24.68;100.00;99863.50;2088405;28;46407;-58
2023/07/25 03:49:19;;;;;;;;;3.00;3.00;;;;;24.68;100.00;99873.50;2088202;28;46342;-58
2023/07/25 03:50:19;;;;;;;;;3.00;3.00;;;;;24.67;100.00;99869.91;2088969;28;45589;-61
2023/07/25 03:51:19;;;;;;;;;4.75;3.75;;;;;24.66;100.00;99868.22;2088052;28;46809;-61
2023/07/25 03:52:20;;;;;;;;;3.50;3.50;;;;;24.65;100.00;99861.06;2087530;28;46176;-61
2023/07/25 03:53:20;;;;;;;;;5.50;4.00;;;;;24.64;100.00;99859.34;2088037;28;46640;-60
2023/07/25 03:54:23;;;;;;;;;4.00;2.75;;;;;24.62;100.00;99867.63;2088331;28;46877;-61
2023/07/25 03:55:24;;;;;;;;;5.80;4.60;;;;;24.61;100.00;99876.75;2087649;28;46401;-60
2023/07/25 03:56:24;;;;;;;;;4.00;4.00;;;;;24.61;100.00;99867.75;2088262;28;46382;-60
2023/07/25 03:57:24;;;;;;;;;4.50;3.25;;;;;24.60;100.00;99866.91;2081143;28;46277;-60
2023/07/25 03:58:24;;;;;;;;;2.33;2.00;;;;;24.60;100.00;99876.91;2081387;28;46294;-61
2023/07/25 03:59:25;;;;;;;;;4.75;3.75;;;;;24.59;100.00;99877.91;2091800;28;46512;-61
2023/07/25 04:00:25;;;;;;;;;4.00;4.00;;;;;24.58;100.00;99870.78;2083119;28;46312;-61
2023/07/25 04:01:26;;;;;;;;;3.00;3.00;;;;;24.58;100.00;99877.06;2079693;28;46655;-60
2023/07/25 04:02:27;;;;;;;;;2.80;2.80;;;;;24.61;100.00;99878.63;2079611;28;46277;-61
2023/07/25 04:03:27;;;;;;;;;3.00;3.00;;;;;24.60;100.00;99883.19;2083105;28;46351;-61
2023/07/25 04:04:27;;;;;;;;;4.25;4.00;;;;;24.61;100.00;99895.75;2096367;28;46738;-58
2023/07/25 04:05:28;;;;;;;;;3.50;3.25;;;;;24.60;100.00;99888.63;2096262;28;46748;-61
2023/07/25 04:06:28;;;;;;;;;4.00;4.00;;;;;24.59;100.00;99886.91;2087970;28;46432;-60
2023/07/25 04:07:28;;;;;;;;;4.25;3.25;;;;;24.58;100.00;99893.31;2088419;28;45149;-61
2023/07/25 04:08:29;;;;;;;;;3.33;3.33;;;;;24.57;100.00;99893.47;2080466;28;46635;-61
2023/07/25 04:09:29;;;;;;;;;5.25;4.50;;;;;24.54;100.00;99891.06;2097203;28;46320;-59
2023/07/25 04:10:29;;;;;;;;;5.00;5.00;;;;;24.55;100.00;99895.47;2113337;27;47109;-60
2023/07/25 04:11:30;;;;;;;;;4.67;4.67;;;;;24.58;100.00;99897.91;2097223;28;46447;-59
2023/07/25 04:12:30;;;;;;;;;6.33;5.33;;;;;24.52;100.00;99898.44;2097383;28;46352;-59
2023/07/25 04:13:31;;;;;;;;;5.67;5.67;;;;;24.70;100.00;99895.91;2097535;28;46824;-60
2023/07/25 04:14:31;;;;;;;;;5.00;3.67;;;;;24.54;100.00;99904.63;2096378;28;46320;-60
2023/07/25 04:15:31;;;;;;;;;7.00;6.25;;;;;24.58;100.00;99900.63;2097471;28;46301;-60
2023/07/25 04:16:32;;;;;;;;;6.00;4.75;;;;;24.56;100.00;99905.34;2097297;28;46429;-61
2023/07/25 04:17:32;;;;;;;;;6.00;5.00;;;;;24.55;100.00;99909.03;2097393;28;46533;-59
2023/07/25 04:18:32;;;;;;;;;3.75;3.75;;;;;24.56;100.00;99899.91;2096883;28;46304;-60
2023/07/25 04:19:33;;;;;;;;;4.50;4.50;;;;;24.56;100.00;99905.34;2097422;28;46426;-61
2023/07/25 04:20:33;;;;;;;;;4.25;4.25;;;;;24.54;100.00;99891.91;2096967;28;46644;-61
2023/07/25 04:21:33;;;;;;;;;4.50;3.75;;;;;24.53;100.00;99900.19;2096428;28;46424;-62
2023/07/25 04:22:34;;;;;;;;;4.75;4.75;;;;;24.51;100.00;99897.59;2097348;28;46159;-60
2023/07/25 04:23:34;;;;;;;;;5.25;4.50;;;;;24.51;100.00;99904.88;2096328;28;45936;-60
2023/07/25 04:24:34;;;;;;;;;6.00;6.00;;;;;24.50;100.00;99903.16;2096503;28;46985;-60
2023/07/25 04:25:35;;;;;;;;;6.00;6.00;;;;;24.51;100.00;99908.44;2096988;28;46503;-61
2023/07/25 04:26:35;;;;;;;;;6.50;6.00;;;;;24.56;100.00;99900.75;2096625;28;46174;-57
2023/07/25 04:27:35;;;;;;;;;6.00;4.50;;;;;24.52;100.00;99910.19;2096899;28;46162;-61
2023/07/25 04:28:35;;;;;;;;;6.00;6.00;;;;;24.80;100.00;99907.63;2113381;27;46853;-61
2023/07/25 04:29:36;;;;;;;;;5.75;5.75;;;;;24.64;100.00;99911.72;2105286;28;46351;-58
2023/07/25 04:30:36;;;;;;;;;7.00;7.00;;;;;24.61;100.00;99913.88;2096948;28;47092;-59
2023/07/25 04:31:36;;;;;;;;;6.25;6.25;;;;;24.59;100.00;99918.59;2096623;28;48101;-60
2023/07/25 04:32:37;;;;;;;;;5.00;4.75;;;;;24.58;100.00;99919.59;2096919;28;46583;-59
2023/07/25 04:33:37;;;;;;;;;3.50;3.50;;;;;24.58;100.00;99916.88;2097193;28;46196;-60
2023/07/25 04:34:37;;;;;;;;;3.33;3.33;;;;;24.59;100.00;99921.31;2097055;28;46271;-59
2023/07/25 04:35:38;;;;;;;;;6.50;6.00;;;;;24.59;100.00;99922.16;2096406;28;46321;-56
2023/07/25 04:36:38;;;;;;;;;4.00;3.50;;;;;24.59;100.00;99919.47;2096832;28;46299;-59
2023/07/25 04:37:38;;;;;;;;;5.75;5.75;;;;;24.59;100.00;99916.75;2098564;28;47152;-59
2023/07/25 04:38:38;;;;;;;;;5.75;5.25;;;;;24.59;100.00;99915.88;2088764;28;46948;-60
2023/07/25 04:39:39;;;;;;;;;7.00;6.25;;;;;24.60;100.00;99918.44;2104779;28;46249;-58
2023/07/25 04:40:39;;;;;;;;;4.00;4.00;;;;;24.59;100.00;99915.88;2104699;28;46266;-60
2023/07/25 04:41:40;;;;;;;;;5.25;5.25;;;;;24.57;100.00;99912.47;2105367;27;46416;-59